< < Back
Terminal Aerodrome Forecast


Current Version              Previous Versions:   1  2  3  4  5  6  7  8  9  

Terminal Aerodrome Forecast

350
FTUS44 KBMX 152300
TAFBHM
TAF
KBHM 152338Z 1600/1624 VRB02KT P6SM VCSH BKN100
     FM160300 00000KT P6SM BKN100
     FM161000 00000KT 5SM BR SCT009 BKN015
     FM161400 33005KT P6SM SCT040 BKN250
     FM161900 33007KT P6SM SCT250=

Latest METAR

842
SAUS70 KWBC 160400 RRF
MTRBHM
METAR KBHM 160353Z 07004KT 10SM SCT250 23/21 A3014 RMK AO2 SLP198
T02280211


USA.gov is the U.S. government's official web portal to all federal, state and local government web resources and services.